Mestre Lazaro — CUEP5 — position and weather

sailwx.info

Track history (hours):
 
Tides and Currents Weather Stations Pressure Air Temp Water Temp Dewpoint Dewpoint Depression Visibility Wind Speed Wind Dir Waves Ship Positions

Mestre Lazaro

Last reported at 2018-Jan-10 09:26 UTC. Time now 2018-Jan-18 04:16 UTC.
Position N 41°11' W 008°42'.

Length 22 m.

Type: Fishing. MMSI: 263405850.

Date/timePositionNaut miles runAvg speedWind from/ knotsBaromVisibWave heightAir tempDewpointWater temp
2018-Jan-10 09:26N 41°11' W 008°42'0 0.0
2018-Jan-10 09:01N 41°11' W 008°42'0 0.0
2018-Jan-10 08:31N 41°11' W 008°42'0 0.0
2018-Jan-10 08:00N 41°11' W 008°42'0 0.0
2018-Jan-10 07:30N 41°11' W 008°42'0 0.0
2018-Jan-10 07:00N 41°11' W 008°42'0 0.0
2018-Jan-10 06:30N 41°11' W 008°42'0 0.0
2018-Jan-10 06:00N 41°11' W 008°42'0 0.0
2018-Jan-10 05:30N 41°11' W 008°42'0 0.0
2018-Jan-10 05:00N 41°11' W 008°42'0 0.0
2018-Jan-10 04:30N 41°11' W 008°42'0 0.0
2018-Jan-10 04:00N 41°11' W 008°42'0 0.0
2018-Jan-10 03:30N 41°11' W 008°42'0 0.0
2018-Jan-10 03:00N 41°11' W 008°42'0 0.0
2018-Jan-10 02:30N 41°11' W 008°42'0 0.0
2018-Jan-10 02:00N 41°11' W 008°42'2 3.4
2018-Jan-10 01:30N 41°09' W 008°42'510.8
2018-Jan-10 01:00N 41°04' W 008°43'2 0.3
2018-Jan-09 18:19N 41°06' W 008°43'5 0.7
2018-Jan-09 11:22N 41°11' W 008°42'0 0.0
2018-Jan-09 11:00N 41°11' W 008°42'0 0.0
2018-Jan-09 10:30N 41°11' W 008°42'0 0.0
2018-Jan-09 10:00N 41°11' W 008°42'0 0.0
2018-Jan-09 09:30N 41°11' W 008°42'0 0.0
2018-Jan-09 09:00N 41°11' W 008°42'0 0.0
2018-Jan-09 08:30N 41°11' W 008°42'0 0.0
2018-Jan-09 08:00N 41°11' W 008°42'0 0.0
2018-Jan-09 07:30N 41°11' W 008°42'0 0.0
2018-Jan-09 07:00N 41°11' W 008°42'0 0.0
2018-Jan-09 06:30N 41°11' W 008°42'0 0.0
2018-Jan-09 06:00N 41°11' W 008°42'0 0.0
2018-Jan-09 05:30N 41°11' W 008°42'0 0.0
2018-Jan-09 05:00N 41°11' W 008°42'0 0.0
2018-Jan-09 04:30N 41°11' W 008°42'2 4.3
2018-Jan-09 04:00N 41°09' W 008°43'5 9.5
2018-Jan-09 03:30N 41°04' W 008°44'1 0.0
2018-Jan-08 00:26N 41°05' W 008°43'511.0
2018-Jan-08 00:00N 41°09' W 008°42'2 3.2
2018-Jan-07 23:30N 41°11' W 008°42'0 0.0
2018-Jan-07 11:41N 41°11' W 008°42'0 0.0
2018-Jan-07 11:30N 41°11' W 008°42'3 5.8
2018-Jan-07 11:00N 41°13' W 008°45'  
Track history (hours):
 
Tides and Currents Weather Stations Pressure Air Temp Water Temp Dewpoint Dewpoint Depression Visibility Wind Speed Wind Dir Waves Ship Positions

Mestre Lazaro

Last reported at 2018-Jan-10 09:26 UTC. Time now 2018-Jan-18 04:16 UTC.
Position N 41°11' W 008°42'.

Length 22 m.

Type: Fishing. MMSI: 263405850.

Date/timePositionNaut miles runAvg speedWind from/ knotsBaromVisibWave heightAir tempDewpointWater temp
2018-Jan-10 09:26N 41°11' W 008°42'0 0.0
2018-Jan-10 09:01N 41°11' W 008°42'0 0.0
2018-Jan-10 08:31N 41°11' W 008°42'0 0.0
2018-Jan-10 08:00N 41°11' W 008°42'0 0.0
2018-Jan-10 07:30N 41°11' W 008°42'0 0.0
2018-Jan-10 07:00N 41°11' W 008°42'0 0.0
2018-Jan-10 06:30N 41°11' W 008°42'0 0.0
2018-Jan-10 06:00N 41°11' W 008°42'0 0.0
2018-Jan-10 05:30N 41°11' W 008°42'0 0.0
2018-Jan-10 05:00N 41°11' W 008°42'0 0.0
2018-Jan-10 04:30N 41°11' W 008°42'0 0.0
2018-Jan-10 04:00N 41°11' W 008°42'0 0.0
2018-Jan-10 03:30N 41°11' W 008°42'0 0.0
2018-Jan-10 03:00N 41°11' W 008°42'0 0.0
2018-Jan-10 02:30N 41°11' W 008°42'0 0.0
2018-Jan-10 02:00N 41°11' W 008°42'2 3.4
2018-Jan-10 01:30N 41°09' W 008°42'510.8
2018-Jan-10 01:00N 41°04' W 008°43'2 0.3
2018-Jan-09 18:19N 41°06' W 008°43'5 0.7
2018-Jan-09 11:22N 41°11' W 008°42'0 0.0
2018-Jan-09 11:00N 41°11' W 008°42'0 0.0
2018-Jan-09 10:30N 41°11' W 008°42'0 0.0
2018-Jan-09 10:00N 41°11' W 008°42'0 0.0
2018-Jan-09 09:30N 41°11' W 008°42'0 0.0
2018-Jan-09 09:00N 41°11' W 008°42'0 0.0
2018-Jan-09 08:30N 41°11' W 008°42'0 0.0
2018-Jan-09 08:00N 41°11' W 008°42'0 0.0
2018-Jan-09 07:30N 41°11' W 008°42'0 0.0
2018-Jan-09 07:00N 41°11' W 008°42'0 0.0
2018-Jan-09 06:30N 41°11' W 008°42'0 0.0
2018-Jan-09 06:00N 41°11' W 008°42'0 0.0
2018-Jan-09 05:30N 41°11' W 008°42'0 0.0
2018-Jan-09 05:00N 41°11' W 008°42'0 0.0
2018-Jan-09 04:30N 41°11' W 008°42'2 4.3
2018-Jan-09 04:00N 41°09' W 008°43'5 9.5
2018-Jan-09 03:30N 41°04' W 008°44'1 0.0
2018-Jan-08 00:26N 41°05' W 008°43'511.0
2018-Jan-08 00:00N 41°09' W 008°42'2 3.2
2018-Jan-07 23:30N 41°11' W 008°42'0 0.0
2018-Jan-07 11:41N 41°11' W 008°42'0 0.0
2018-Jan-07 11:30N 41°11' W 008°42'3 5.8
2018-Jan-07 11:00N 41°13' W 008°45'  

Dump ship's entire track history